Terminal Aerodrome Forecast
Issued by NWS

Home | Current Version | Previous Version | Graphics & Text | Print | Product List | Glossary On
Versions: 1 2 3 4 5 6 7 8 9 10 11 12 13 14 15 16 17 18 19 20
928
FTUS43 KJKL 171132
TAFSME
TAF
KSME 171132Z 1712/1812 00000KT 5SM BR FEW250
     FM171300 VRB05KT P6SM FEW250
     FM181000 00000KT 4SM BR FEW250=

USA.gov is the U.S. government's official web portal to all federal, state and local government web resources and services.